Hauptseite
METAR-TAF:

METAR-TAF

Flughäfen :

Flughafen Kiel

Kiel, Deutschland

Breite: 54-23N, Länge: 010-10E, Höhe: 31 m

Beobachtung

Neuester Wetterbericht von vor 34 Minuten, um 19:20 UTC
Wind 2 kt aus West/Nordwest
Temperatur 22°C
Luftfeuchtigkeit 57%
Luftdruck 1017 hPa
Sichtweite 10 km oder mehr

METAR: EDHK 051920Z AUTO 30002KT 9999 // NCD 22/13 Q1017

Zeit: 21:54 (19:54 UTC)

Prognose

Neuester Wetterbericht von vor 5 Stunden und 54 Minuten, um 14:00 UTC
Gültige Prognose vom 05 um 15 UTC bis 05 um 19 UTC
Wind 12 kt aus Südwest
Sichtweite 10 km oder mehr
keine Wolken unter 1500 m und keine Kumulonimbus oder Gewitterwolken
Übergehend zu
vom 05 um 16 UTC bis 05 um 19 UTC
Wind 3 kt aus unterschiedlichen Richtungen

TAF: EDHK 051400Z 0515/0519 22012KT CAVOK BECMG 0516/0519 VRB03KT

Wetterbeobachtungen und Prognosen von mehr als 4000 Flughäfen (METAR und TAF Bericht).

Die verfügbaren Stationen werden durch gelbe und rote Markierungen auf der Karte dargestellt.

Führen Sie die Maus auf sie, um den Namen der Station zu sehen.

Darauf klicken, um die Beobachtung von Wetterbeobachtungen und Prognosen zu sehen.

Um die Karte zu ändern : klicken Sie auf den grünen Tasten mit einem schwarzen Kreuz Zum Vergrößern, auf den grünen Button mit einem Gedankenstrich zu verkleinern, oder auf die grünen Pfeile für benachbarte Karten.


METAR-TAF: